sensor_id;sensor_type;location;lat;lon;timestamp;temperature;humidity
32600;DHT22;19277;51.778;7.912;2023-01-23T00:02:18;19.60;75.70
32600;DHT22;19277;51.778;7.912;2023-01-23T00:04:44;19.60;75.90
32600;DHT22;19277;51.778;7.912;2023-01-23T00:07:09;19.70;75.90
32600;DHT22;19277;51.778;7.912;2023-01-23T00:09:35;19.70;76.00
32600;DHT22;19277;51.778;7.912;2023-01-23T00:12:00;19.70;76.10
32600;DHT22;19277;51.778;7.912;2023-01-23T00:14:26;19.80;76.30
32600;DHT22;19277;51.778;7.912;2023-01-23T00:16:52;19.80;76.50
32600;DHT22;19277;51.778;7.912;2023-01-23T00:19:17;19.80;76.70
32600;DHT22;19277;51.778;7.912;2023-01-23T00:21:43;19.80;76.70
32600;DHT22;19277;51.778;7.912;2023-01-23T00:24:10;19.80;77.20
32600;DHT22;19277;51.778;7.912;2023-01-23T00:26:36;19.90;77.30
32600;DHT22;19277;51.778;7.912;2023-01-23T00:29:02;19.90;77.20
32600;DHT22;19277;51.778;7.912;2023-01-23T00:31:32;19.90;77.30
32600;DHT22;19277;51.778;7.912;2023-01-23T00:34:01;19.90;77.70
32600;DHT22;19277;51.778;7.912;2023-01-23T00:36:30;20.00;77.20
32600;DHT22;19277;51.778;7.912;2023-01-23T00:38:56;20.00;77.30
32600;DHT22;19277;51.778;7.912;2023-01-23T00:41:22;20.00;77.30
32600;DHT22;19277;51.778;7.912;2023-01-23T00:43:48;20.00;77.30
32600;DHT22;19277;51.778;7.912;2023-01-23T00:46:17;20.00;77.40
32600;DHT22;19277;51.778;7.912;2023-01-23T00:48:43;20.00;77.40
32600;DHT22;19277;51.778;7.912;2023-01-23T00:51:08;20.10;77.40
32600;DHT22;19277;51.778;7.912;2023-01-23T00:53:34;20.10;77.40
32600;DHT22;19277;51.778;7.912;2023-01-23T00:55:59;20.10;77.50
32600;DHT22;19277;51.778;7.912;2023-01-23T00:58:25;20.10;77.80
32600;DHT22;19277;51.778;7.912;2023-01-23T01:00:50;20.10;77.80
32600;DHT22;19277;51.778;7.912;2023-01-23T01:03:16;20.10;78.10
32600;DHT22;19277;51.778;7.912;2023-01-23T01:05:43;20.10;78.20
32600;DHT22;19277;51.778;7.912;2023-01-23T01:08:09;20.10;78.60
32600;DHT22;19277;51.778;7.912;2023-01-23T01:10:34;20.10;78.70
32600;DHT22;19277;51.778;7.912;2023-01-23T01:13:02;20.10;79.00
32600;DHT22;19277;51.778;7.912;2023-01-23T01:15:28;20.10;79.20
32600;DHT22;19277;51.778;7.912;2023-01-23T01:17:54;20.10;79.40
32600;DHT22;19277;51.778;7.912;2023-01-23T01:20:24;20.10;79.70
32600;DHT22;19277;51.778;7.912;2023-01-23T01:22:51;20.10;79.80
32600;DHT22;19277;51.778;7.912;2023-01-23T01:25:16;20.10;79.80
32600;DHT22;19277;51.778;7.912;2023-01-23T01:27:42;20.10;79.90
32600;DHT22;19277;51.778;7.912;2023-01-23T01:30:08;20.10;80.10
32600;DHT22;19277;51.778;7.912;2023-01-23T01:32:39;20.10;80.10
32600;DHT22;19277;51.778;7.912;2023-01-23T01:35:05;20.10;80.20
32600;DHT22;19277;51.778;7.912;2023-01-23T01:37:33;20.10;80.40
32600;DHT22;19277;51.778;7.912;2023-01-23T01:39:58;20.10;80.40
32600;DHT22;19277;51.778;7.912;2023-01-23T01:42:24;20.10;80.70
32600;DHT22;19277;51.778;7.912;2023-01-23T01:45:00;20.20;80.70
32600;DHT22;19277;51.778;7.912;2023-01-23T01:47:27;20.10;82.30
32600;DHT22;19277;51.778;7.912;2023-01-23T01:49:56;20.20;82.00
32600;DHT22;19277;51.778;7.912;2023-01-23T01:52:24;20.20;82.20
32600;DHT22;19277;51.778;7.912;2023-01-23T01:55:02;20.10;82.30
32600;DHT22;19277;51.778;7.912;2023-01-23T01:57:38;20.20;82.60
32600;DHT22;19277;51.778;7.912;2023-01-23T02:00:14;20.20;82.80
32600;DHT22;19277;51.778;7.912;2023-01-23T02:02:48;20.20;83.00
32600;DHT22;19277;51.778;7.912;2023-01-23T02:05:26;20.20;82.90
32600;DHT22;19277;51.778;7.912;2023-01-23T02:07:58;20.20;82.70
32600;DHT22;19277;51.778;7.912;2023-01-23T02:10:25;20.20;82.70
32600;DHT22;19277;51.778;7.912;2023-01-23T02:12:51;20.20;82.70
32600;DHT22;19277;51.778;7.912;2023-01-23T02:15:19;20.20;82.60
32600;DHT22;19277;51.778;7.912;2023-01-23T02:17:46;20.30;82.70
32600;DHT22;19277;51.778;7.912;2023-01-23T02:20:26;20.20;82.80
32600;DHT22;19277;51.778;7.912;2023-01-23T02:27:53;20.20;82.70
32600;DHT22;19277;51.778;7.912;2023-01-23T02:30:21;20.20;82.80
32600;DHT22;19277;51.778;7.912;2023-01-23T02:32:46;20.30;82.70
32600;DHT22;19277;51.778;7.912;2023-01-23T02:35:25;20.20;82.60
32600;DHT22;19277;51.778;7.912;2023-01-23T02:37:55;20.30;82.60
32600;DHT22;19277;51.778;7.912;2023-01-23T02:40:32;20.30;82.60
32600;DHT22;19277;51.778;7.912;2023-01-23T02:42:58;20.30;82.60
32600;DHT22;19277;51.778;7.912;2023-01-23T02:45:24;20.30;82.60
32600;DHT22;19277;51.778;7.912;2023-01-23T02:47:50;20.30;82.70
32600;DHT22;19277;51.778;7.912;2023-01-23T02:50:16;20.30;82.70
32600;DHT22;19277;51.778;7.912;2023-01-23T02:52:42;20.30;82.70
32600;DHT22;19277;51.778;7.912;2023-01-23T02:55:08;20.30;82.90
32600;DHT22;19277;51.778;7.912;2023-01-23T02:57:33;20.20;83.00
32600;DHT22;19277;51.778;7.912;2023-01-23T02:59:59;20.30;82.90
32600;DHT22;19277;51.778;7.912;2023-01-23T03:02:48;20.30;82.90
32600;DHT22;19277;51.778;7.912;2023-01-23T03:05:14;20.30;83.00
32600;DHT22;19277;51.778;7.912;2023-01-23T03:07:40;20.30;82.90
32600;DHT22;19277;51.778;7.912;2023-01-23T03:10:09;20.30;82.90
32600;DHT22;19277;51.778;7.912;2023-01-23T03:12:35;20.40;83.00
32600;DHT22;19277;51.778;7.912;2023-01-23T03:15:04;20.30;82.90
32600;DHT22;19277;51.778;7.912;2023-01-23T03:17:30;20.30;82.90
32600;DHT22;19277;51.778;7.912;2023-01-23T03:19:56;20.30;82.90
32600;DHT22;19277;51.778;7.912;2023-01-23T03:22:22;20.30;83.00
32600;DHT22;19277;51.778;7.912;2023-01-23T03:24:48;20.30;83.00
32600;DHT22;19277;51.778;7.912;2023-01-23T03:27:13;20.30;83.00
32600;DHT22;19277;51.778;7.912;2023-01-23T03:29:39;20.30;83.00
32600;DHT22;19277;51.778;7.912;2023-01-23T03:32:23;20.30;83.00
32600;DHT22;19277;51.778;7.912;2023-01-23T03:34:50;20.30;83.00
32600;DHT22;19277;51.778;7.912;2023-01-23T03:37:16;20.30;83.10
32600;DHT22;19277;51.778;7.912;2023-01-23T03:39:44;20.30;83.00
32600;DHT22;19277;51.778;7.912;2023-01-23T03:42:29;20.30;83.10
32600;DHT22;19277;51.778;7.912;2023-01-23T03:44:54;20.30;83.10
32600;DHT22;19277;51.778;7.912;2023-01-23T03:47:20;20.30;83.10
32600;DHT22;19277;51.778;7.912;2023-01-23T03:49:46;20.30;83.20
32600;DHT22;19277;51.778;7.912;2023-01-23T03:52:11;20.30;83.00
32600;DHT22;19277;51.778;7.912;2023-01-23T03:54:37;20.40;83.10
32600;DHT22;19277;51.778;7.912;2023-01-23T03:57:02;20.40;83.00
32600;DHT22;19277;51.778;7.912;2023-01-23T03:59:28;20.40;83.20
32600;DHT22;19277;51.778;7.912;2023-01-23T04:01:54;20.40;83.20
32600;DHT22;19277;51.778;7.912;2023-01-23T04:04:20;20.40;83.20
32600;DHT22;19277;51.778;7.912;2023-01-23T04:06:45;20.30;83.10
32600;DHT22;19277;51.778;7.912;2023-01-23T04:09:11;20.40;83.30
32600;DHT22;19277;51.778;7.912;2023-01-23T04:11:37;20.40;83.20
32600;DHT22;19277;51.778;7.912;2023-01-23T04:14:02;20.30;83.10
32600;DHT22;19277;51.778;7.912;2023-01-23T04:16:28;20.40;83.20
32600;DHT22;19277;51.778;7.912;2023-01-23T04:18:54;20.40;83.10
32600;DHT22;19277;51.778;7.912;2023-01-23T04:21:20;20.40;83.10
32600;DHT22;19277;51.778;7.912;2023-01-23T04:23:45;20.40;83.20
32600;DHT22;19277;51.778;7.912;2023-01-23T04:26:12;20.30;83.20
32600;DHT22;19277;51.778;7.912;2023-01-23T04:28:37;20.40;83.10
32600;DHT22;19277;51.778;7.912;2023-01-23T04:31:04;20.30;83.10
32600;DHT22;19277;51.778;7.912;2023-01-23T04:33:29;20.40;83.30
32600;DHT22;19277;51.778;7.912;2023-01-23T04:36:00;20.30;83.20
32600;DHT22;19277;51.778;7.912;2023-01-23T04:38:28;20.40;83.30
32600;DHT22;19277;51.778;7.912;2023-01-23T04:40:54;20.40;83.20
32600;DHT22;19277;51.778;7.912;2023-01-23T04:43:20;20.40;83.10
32600;DHT22;19277;51.778;7.912;2023-01-23T04:45:48;20.40;83.20
32600;DHT22;19277;51.778;7.912;2023-01-23T04:48:14;20.40;83.10
32600;DHT22;19277;51.778;7.912;2023-01-23T04:50:39;20.40;83.10
32600;DHT22;19277;51.778;7.912;2023-01-23T04:53:05;20.40;83.00
32600;DHT22;19277;51.778;7.912;2023-01-23T04:55:31;20.40;82.90
32600;DHT22;19277;51.778;7.912;2023-01-23T04:57:56;20.40;83.00
32600;DHT22;19277;51.778;7.912;2023-01-23T05:00:22;20.40;83.00
32600;DHT22;19277;51.778;7.912;2023-01-23T05:02:49;20.40;82.90
32600;DHT22;19277;51.778;7.912;2023-01-23T05:05:14;20.40;82.90
32600;DHT22;19277;51.778;7.912;2023-01-23T05:07:42;20.40;83.00
32600;DHT22;19277;51.778;7.912;2023-01-23T05:10:08;20.40;83.10
32600;DHT22;19277;51.778;7.912;2023-01-23T05:12:34;20.40;83.10
32600;DHT22;19277;51.778;7.912;2023-01-23T05:15:00;20.40;83.20
32600;DHT22;19277;51.778;7.912;2023-01-23T05:17:25;20.40;83.00
32600;DHT22;19277;51.778;7.912;2023-01-23T05:19:51;20.50;83.00
32600;DHT22;19277;51.778;7.912;2023-01-23T05:22:17;20.50;82.90
32600;DHT22;19277;51.778;7.912;2023-01-23T05:24:43;20.50;82.80
32600;DHT22;19277;51.778;7.912;2023-01-23T05:27:09;20.50;82.80
32600;DHT22;19277;51.778;7.912;2023-01-23T05:29:34;20.50;82.80
32600;DHT22;19277;51.778;7.912;2023-01-23T05:32:00;20.50;82.80
32600;DHT22;19277;51.778;7.912;2023-01-23T05:34:26;20.60;82.90
32600;DHT22;19277;51.778;7.912;2023-01-23T05:36:51;20.60;82.90
32600;DHT22;19277;51.778;7.912;2023-01-23T05:39:17;20.60;82.90
32600;DHT22;19277;51.778;7.912;2023-01-23T05:41:42;20.60;83.10
32600;DHT22;19277;51.778;7.912;2023-01-23T05:44:08;20.60;83.10
32600;DHT22;19277;51.778;7.912;2023-01-23T05:46:33;20.60;83.20
32600;DHT22;19277;51.778;7.912;2023-01-23T05:48:59;20.60;83.50
32600;DHT22;19277;51.778;7.912;2023-01-23T05:51:24;20.60;83.50
32600;DHT22;19277;51.778;7.912;2023-01-23T05:53:56;20.60;83.40
32600;DHT22;19277;51.778;7.912;2023-01-23T05:56:22;20.70;83.70
32600;DHT22;19277;51.778;7.912;2023-01-23T05:58:48;20.70;83.70
32600;DHT22;19277;51.778;7.912;2023-01-23T06:01:13;20.70;83.80
32600;DHT22;19277;51.778;7.912;2023-01-23T06:03:39;20.70;83.80
32600;DHT22;19277;51.778;7.912;2023-01-23T06:06:05;20.70;83.90
32600;DHT22;19277;51.778;7.912;2023-01-23T06:08:31;20.70;84.00
32600;DHT22;19277;51.778;7.912;2023-01-23T06:10:59;20.70;84.10
32600;DHT22;19277;51.778;7.912;2023-01-23T06:13:26;20.70;84.20
32600;DHT22;19277;51.778;7.912;2023-01-23T06:15:51;20.70;84.20
32600;DHT22;19277;51.778;7.912;2023-01-23T06:18:17;20.80;84.40
32600;DHT22;19277;51.778;7.912;2023-01-23T06:20:43;20.80;84.40
32600;DHT22;19277;51.778;7.912;2023-01-23T06:23:09;20.80;84.50
32600;DHT22;19277;51.778;7.912;2023-01-23T06:25:35;20.80;84.50
32600;DHT22;19277;51.778;7.912;2023-01-23T06:28:01;20.80;84.60
32600;DHT22;19277;51.778;7.912;2023-01-23T06:30:26;20.80;84.60
32600;DHT22;19277;51.778;7.912;2023-01-23T06:32:52;20.80;84.60
32600;DHT22;19277;51.778;7.912;2023-01-23T06:35:20;20.80;84.60
32600;DHT22;19277;51.778;7.912;2023-01-23T06:37:59;20.80;84.60
32600;DHT22;19277;51.778;7.912;2023-01-23T06:40:35;20.80;84.60
32600;DHT22;19277;51.778;7.912;2023-01-23T06:43:03;20.80;84.80
32600;DHT22;19277;51.778;7.912;2023-01-23T06:45:29;20.80;84.80
32600;DHT22;19277;51.778;7.912;2023-01-23T06:47:58;20.80;85.00
32600;DHT22;19277;51.778;7.912;2023-01-23T06:50:27;20.80;84.90
32600;DHT22;19277;51.778;7.912;2023-01-23T06:52:56;20.80;84.90
32600;DHT22;19277;51.778;7.912;2023-01-23T06:58:21;20.80;84.80
32600;DHT22;19277;51.778;7.912;2023-01-23T07:00:49;20.80;85.30
32600;DHT22;19277;51.778;7.912;2023-01-23T07:03:15;20.90;85.50
32600;DHT22;19277;51.778;7.912;2023-01-23T07:05:44;20.90;85.50
32600;DHT22;19277;51.778;7.912;2023-01-23T07:08:16;20.90;85.40
32600;DHT22;19277;51.778;7.912;2023-01-23T07:10:48;20.90;85.30
32600;DHT22;19277;51.778;7.912;2023-01-23T07:13:19;20.90;85.20
32600;DHT22;19277;51.778;7.912;2023-01-23T07:15:51;20.90;85.10
32600;DHT22;19277;51.778;7.912;2023-01-23T07:18:19;20.90;85.40
32600;DHT22;19277;51.778;7.912;2023-01-23T07:20:46;20.90;85.30
32600;DHT22;19277;51.778;7.912;2023-01-23T07:23:15;20.90;85.60
32600;DHT22;19277;51.778;7.912;2023-01-23T07:26:06;21.00;85.10
32600;DHT22;19277;51.778;7.912;2023-01-23T07:28:40;20.90;84.90
32600;DHT22;19277;51.778;7.912;2023-01-23T07:31:07;21.00;84.90
32600;DHT22;19277;51.778;7.912;2023-01-23T07:33:42;21.00;84.90
32600;DHT22;19277;51.778;7.912;2023-01-23T07:36:08;21.00;85.10
32600;DHT22;19277;51.778;7.912;2023-01-23T07:38:34;21.00;85.10
32600;DHT22;19277;51.778;7.912;2023-01-23T07:41:00;21.00;85.00
32600;DHT22;19277;51.778;7.912;2023-01-23T07:43:37;21.00;85.00
32600;DHT22;19277;51.778;7.912;2023-01-23T07:46:03;21.00;85.00
32600;DHT22;19277;51.778;7.912;2023-01-23T07:48:35;21.00;85.70
32600;DHT22;19277;51.778;7.912;2023-01-23T07:51:16;21.00;85.60
32600;DHT22;19277;51.778;7.912;2023-01-23T07:54:11;21.00;85.40
32600;DHT22;19277;51.778;7.912;2023-01-23T07:56:52;21.00;85.00
32600;DHT22;19277;51.778;7.912;2023-01-23T07:59:31;21.00;84.70
32600;DHT22;19277;51.778;7.912;2023-01-23T08:01:57;21.00;84.50
32600;DHT22;19277;51.778;7.912;2023-01-23T08:04:26;21.00;84.30
32600;DHT22;19277;51.778;7.912;2023-01-23T08:06:55;21.00;84.20
32600;DHT22;19277;51.778;7.912;2023-01-23T08:09:27;21.00;84.10
32600;DHT22;19277;51.778;7.912;2023-01-23T08:11:55;20.90;66.40
32600;DHT22;19277;51.778;7.912;2023-01-23T08:14:23;19.00;57.00
32600;DHT22;19277;51.778;7.912;2023-01-23T08:16:52;17.00;57.10
32600;DHT22;19277;51.778;7.912;2023-01-23T08:19:18;15.40;57.90
32600;DHT22;19277;51.778;7.912;2023-01-23T08:21:44;13.90;60.80
32600;DHT22;19277;51.778;7.912;2023-01-23T08:24:11;12.80;64.10
32600;DHT22;19277;51.778;7.912;2023-01-23T08:26:36;12.00;66.70
32600;DHT22;19277;51.778;7.912;2023-01-23T08:29:02;11.40;67.80
32600;DHT22;19277;51.778;7.912;2023-01-23T08:31:28;11.10;67.20
32600;DHT22;19277;51.778;7.912;2023-01-23T08:33:54;11.00;82.20
32600;DHT22;19277;51.778;7.912;2023-01-23T08:36:20;12.00;86.90
32600;DHT22;19277;51.778;7.912;2023-01-23T08:38:45;13.20;85.20
32600;DHT22;19277;51.778;7.912;2023-01-23T08:41:11;14.40;83.70
32600;DHT22;19277;51.778;7.912;2023-01-23T08:43:37;15.40;81.60
32600;DHT22;19277;51.778;7.912;2023-01-23T08:46:03;16.30;80.30
32600;DHT22;19277;51.778;7.912;2023-01-23T08:48:29;17.00;79.10
32600;DHT22;19277;51.778;7.912;2023-01-23T08:51:00;17.50;78.30
32600;DHT22;19277;51.778;7.912;2023-01-23T08:53:26;18.00;77.40
32600;DHT22;19277;51.778;7.912;2023-01-23T08:55:52;18.40;76.80
32600;DHT22;19277;51.778;7.912;2023-01-23T08:58:18;18.70;76.50
32600;DHT22;19277;51.778;7.912;2023-01-23T09:00:46;18.90;76.30
32600;DHT22;19277;51.778;7.912;2023-01-23T09:03:11;19.20;76.20
32600;DHT22;19277;51.778;7.912;2023-01-23T09:05:37;19.30;76.30
32600;DHT22;19277;51.778;7.912;2023-01-23T09:08:03;19.50;76.50
32600;DHT22;19277;51.778;7.912;2023-01-23T09:10:28;19.70;76.10
32600;DHT22;19277;51.778;7.912;2023-01-23T09:12:54;19.70;76.10
32600;DHT22;19277;51.778;7.912;2023-01-23T09:15:20;19.90;76.10
32600;DHT22;19277;51.778;7.912;2023-01-23T09:17:47;19.90;76.00
32600;DHT22;19277;51.778;7.912;2023-01-23T09:20:12;20.00;76.20
32600;DHT22;19277;51.778;7.912;2023-01-23T09:22:39;20.10;76.20
32600;DHT22;19277;51.778;7.912;2023-01-23T09:25:05;20.20;76.00
32600;DHT22;19277;51.778;7.912;2023-01-23T09:27:31;20.20;76.10
32600;DHT22;19277;51.778;7.912;2023-01-23T09:29:57;20.30;76.00
32600;DHT22;19277;51.778;7.912;2023-01-23T09:32:22;20.40;76.00
32600;DHT22;19277;51.778;7.912;2023-01-23T09:34:48;20.40;76.00
32600;DHT22;19277;51.778;7.912;2023-01-23T09:37:15;20.50;76.10
32600;DHT22;19277;51.778;7.912;2023-01-23T09:39:42;20.60;76.10
32600;DHT22;19277;51.778;7.912;2023-01-23T09:42:25;20.60;76.00
32600;DHT22;19277;51.778;7.912;2023-01-23T09:44:55;20.90;78.10
32600;DHT22;19277;51.778;7.912;2023-01-23T09:47:30;21.00;76.20
32600;DHT22;19277;51.778;7.912;2023-01-23T09:50:14;21.10;75.70
32600;DHT22;19277;51.778;7.912;2023-01-23T09:52:47;21.10;75.70
32600;DHT22;19277;51.778;7.912;2023-01-23T09:55:41;21.10;75.60
32600;DHT22;19277;51.778;7.912;2023-01-23T09:58:24;21.10;75.60
32600;DHT22;19277;51.778;7.912;2023-01-23T10:00:52;21.10;75.60
32600;DHT22;19277;51.778;7.912;2023-01-23T10:03:18;21.10;75.30
32600;DHT22;19277;51.778;7.912;2023-01-23T10:06:05;21.10;75.20
32600;DHT22;19277;51.778;7.912;2023-01-23T10:09:00;21.10;75.20
32600;DHT22;19277;51.778;7.912;2023-01-23T10:11:42;21.10;75.20
32600;DHT22;19277;51.778;7.912;2023-01-23T10:14:30;21.10;75.80
32600;DHT22;19277;51.778;7.912;2023-01-23T10:22:18;21.00;75.20
32600;DHT22;19277;51.778;7.912;2023-01-23T10:24:51;21.00;75.20
32600;DHT22;19277;51.778;7.912;2023-01-23T10:27:23;21.10;75.60
32600;DHT22;19277;51.778;7.912;2023-01-23T10:30:19;21.10;75.50
32600;DHT22;19277;51.778;7.912;2023-01-23T10:32:51;21.20;75.50
32600;DHT22;19277;51.778;7.912;2023-01-23T10:35:26;21.20;75.40
32600;DHT22;19277;51.778;7.912;2023-01-23T10:38:01;21.20;75.30
32600;DHT22;19277;51.778;7.912;2023-01-23T10:40:29;21.30;75.40
32600;DHT22;19277;51.778;7.912;2023-01-23T10:43:18;21.30;75.60
32600;DHT22;19277;51.778;7.912;2023-01-23T10:45:46;21.30;75.50
32600;DHT22;19277;51.778;7.912;2023-01-23T10:50:57;21.40;75.60
32600;DHT22;19277;51.778;7.912;2023-01-23T10:53:23;21.40;75.60
32600;DHT22;19277;51.778;7.912;2023-01-23T10:55:51;21.50;75.70
32600;DHT22;19277;51.778;7.912;2023-01-23T10:58:36;21.50;75.70
32600;DHT22;19277;51.778;7.912;2023-01-23T11:01:03;21.50;75.60
32600;DHT22;19277;51.778;7.912;2023-01-23T11:03:32;21.50;75.60
32600;DHT22;19277;51.778;7.912;2023-01-23T11:06:04;21.50;75.60
32600;DHT22;19277;51.778;7.912;2023-01-23T11:08:36;21.50;76.20
32600;DHT22;19277;51.778;7.912;2023-01-23T11:13:43;21.50;75.90
32600;DHT22;19277;51.778;7.912;2023-01-23T11:16:20;21.50;75.90
32600;DHT22;19277;51.778;7.912;2023-01-23T11:18:52;21.60;75.90
32600;DHT22;19277;51.778;7.912;2023-01-23T11:32:13;21.70;76.10
32600;DHT22;19277;51.778;7.912;2023-01-23T11:34:44;21.60;76.10
32600;DHT22;19277;51.778;7.912;2023-01-23T11:37:26;21.60;76.30
32600;DHT22;19277;51.778;7.912;2023-01-23T11:39:58;21.60;76.30
32600;DHT22;19277;51.778;7.912;2023-01-23T11:42:27;21.60;76.40
32600;DHT22;19277;51.778;7.912;2023-01-23T11:44:53;21.60;76.40
32600;DHT22;19277;51.778;7.912;2023-01-23T11:47:24;21.70;76.40
32600;DHT22;19277;51.778;7.912;2023-01-23T11:56:05;21.70;76.40
32600;DHT22;19277;51.778;7.912;2023-01-23T12:07:09;21.80;76.90
32600;DHT22;19277;51.778;7.912;2023-01-23T12:20:27;21.90;76.80
32600;DHT22;19277;51.778;7.912;2023-01-23T12:25:39;22.00;76.90
32600;DHT22;19277;51.778;7.912;2023-01-23T12:36:21;22.10;77.10
32600;DHT22;19277;51.778;7.912;2023-01-23T12:39:19;22.10;77.00
32600;DHT22;19277;51.778;7.912;2023-01-23T12:41:54;22.10;77.10
32600;DHT22;19277;51.778;7.912;2023-01-23T12:44:37;22.10;77.20
32600;DHT22;19277;51.778;7.912;2023-01-23T12:47:26;22.10;77.40
32600;DHT22;19277;51.778;7.912;2023-01-23T12:49:59;22.20;77.60
32600;DHT22;19277;51.778;7.912;2023-01-23T12:55:15;22.20;77.80
32600;DHT22;19277;51.778;7.912;2023-01-23T12:57:42;22.20;77.80
32600;DHT22;19277;51.778;7.912;2023-01-23T13:08:45;22.20;78.20
32600;DHT22;19277;51.778;7.912;2023-01-23T13:16:58;22.20;78.50
32600;DHT22;19277;51.778;7.912;2023-01-23T13:19:40;22.20;78.20
32600;DHT22;19277;51.778;7.912;2023-01-23T13:22:29;22.10;77.90
32600;DHT22;19277;51.778;7.912;2023-01-23T13:25:10;22.10;77.80
32600;DHT22;19277;51.778;7.912;2023-01-23T13:32:55;22.00;77.50
32600;DHT22;19277;51.778;7.912;2023-01-23T13:43:54;21.90;77.20
32600;DHT22;19277;51.778;7.912;2023-01-23T13:49:53;21.80;77.50
32600;DHT22;19277;51.778;7.912;2023-01-23T13:52:30;21.80;77.60
32600;DHT22;19277;51.778;7.912;2023-01-23T13:55:19;21.70;78.20
32600;DHT22;19277;51.778;7.912;2023-01-23T13:58:08;21.70;77.80
32600;DHT22;19277;51.778;7.912;2023-01-23T14:00:36;21.60;77.70
32600;DHT22;19277;51.778;7.912;2023-01-23T14:03:28;21.60;77.80
32600;DHT22;19277;51.778;7.912;2023-01-23T14:06:13;21.60;77.90
32600;DHT22;19277;51.778;7.912;2023-01-23T14:08:50;21.60;78.00
32600;DHT22;19277;51.778;7.912;2023-01-23T14:11:17;21.60;78.00
32600;DHT22;19277;51.778;7.912;2023-01-23T14:13:52;21.60;78.10
32600;DHT22;19277;51.778;7.912;2023-01-23T14:16:41;21.50;78.10
32600;DHT22;19277;51.778;7.912;2023-01-23T14:19:28;21.50;78.10
32600;DHT22;19277;51.778;7.912;2023-01-23T14:22:02;21.50;78.20
32600;DHT22;19277;51.778;7.912;2023-01-23T14:24:42;21.50;78.20
32600;DHT22;19277;51.778;7.912;2023-01-23T14:27:35;21.50;78.20
32600;DHT22;19277;51.778;7.912;2023-01-23T14:30:23;21.50;78.20
32600;DHT22;19277;51.778;7.912;2023-01-23T14:32:50;21.50;78.30
32600;DHT22;19277;51.778;7.912;2023-01-23T14:37:43;21.50;78.40
32600;DHT22;19277;51.778;7.912;2023-01-23T14:40:19;21.50;78.50
32600;DHT22;19277;51.778;7.912;2023-01-23T14:42:54;21.40;78.40
32600;DHT22;19277;51.778;7.912;2023-01-23T14:45:21;21.40;78.40
32600;DHT22;19277;51.778;7.912;2023-01-23T14:47:48;21.40;78.50
32600;DHT22;19277;51.778;7.912;2023-01-23T14:50:19;21.40;78.50
32600;DHT22;19277;51.778;7.912;2023-01-23T14:53:16;21.40;78.50
32600;DHT22;19277;51.778;7.912;2023-01-23T14:55:41;21.40;78.60
32600;DHT22;19277;51.778;7.912;2023-01-23T14:58:14;21.40;78.60
32600;DHT22;19277;51.778;7.912;2023-01-23T15:00:44;21.40;79.20
32600;DHT22;19277;51.778;7.912;2023-01-23T15:03:11;21.50;80.60
32600;DHT22;19277;51.778;7.912;2023-01-23T15:05:37;21.50;81.50
32600;DHT22;19277;51.778;7.912;2023-01-23T15:08:06;21.60;81.50
32600;DHT22;19277;51.778;7.912;2023-01-23T15:13:21;21.60;81.40
32600;DHT22;19277;51.778;7.912;2023-01-23T15:16:18;21.70;81.40
32600;DHT22;19277;51.778;7.912;2023-01-23T15:19:17;21.70;81.20
32600;DHT22;19277;51.778;7.912;2023-01-23T15:21:44;21.70;81.00
32600;DHT22;19277;51.778;7.912;2023-01-23T15:26:43;21.80;80.80
32600;DHT22;19277;51.778;7.912;2023-01-23T15:39:57;21.90;80.60
32600;DHT22;19277;51.778;7.912;2023-01-23T15:42:33;21.90;80.50
32600;DHT22;19277;51.778;7.912;2023-01-23T15:45:00;21.90;80.30
32600;DHT22;19277;51.778;7.912;2023-01-23T15:47:30;21.90;80.30
32600;DHT22;19277;51.778;7.912;2023-01-23T15:49:56;21.90;80.30
32600;DHT22;19277;51.778;7.912;2023-01-23T15:52:46;21.90;80.30
32600;DHT22;19277;51.778;7.912;2023-01-23T15:55:12;21.90;80.30
32600;DHT22;19277;51.778;7.912;2023-01-23T15:57:38;21.90;80.40
32600;DHT22;19277;51.778;7.912;2023-01-23T16:00:35;21.90;80.40
32600;DHT22;19277;51.778;7.912;2023-01-23T16:03:03;21.90;80.40
32600;DHT22;19277;51.778;7.912;2023-01-23T16:05:32;21.90;80.30
32600;DHT22;19277;51.778;7.912;2023-01-23T16:07:59;21.90;80.30
32600;DHT22;19277;51.778;7.912;2023-01-23T16:10:35;21.90;80.30
32600;DHT22;19277;51.778;7.912;2023-01-23T16:13:02;21.90;80.40
32600;DHT22;19277;51.778;7.912;2023-01-23T16:15:29;22.00;80.90
32600;DHT22;19277;51.778;7.912;2023-01-23T16:17:57;22.00;80.30
32600;DHT22;19277;51.778;7.912;2023-01-23T16:20:27;22.00;80.30
32600;DHT22;19277;51.778;7.912;2023-01-23T16:22:56;22.00;80.30
32600;DHT22;19277;51.778;7.912;2023-01-23T16:25:34;22.00;80.30
32600;DHT22;19277;51.778;7.912;2023-01-23T16:28:00;22.10;80.30
32600;DHT22;19277;51.778;7.912;2023-01-23T16:30:26;22.00;80.10
32600;DHT22;19277;51.778;7.912;2023-01-23T16:32:53;22.00;80.10
32600;DHT22;19277;51.778;7.912;2023-01-23T16:35:20;22.10;80.20
32600;DHT22;19277;51.778;7.912;2023-01-23T16:37:48;22.00;80.00
32600;DHT22;19277;51.778;7.912;2023-01-23T16:40:16;22.10;80.10
32600;DHT22;19277;51.778;7.912;2023-01-23T16:42:43;22.10;80.00
32600;DHT22;19277;51.778;7.912;2023-01-23T16:45:18;22.10;80.10
32600;DHT22;19277;51.778;7.912;2023-01-23T16:47:44;22.10;80.10
32600;DHT22;19277;51.778;7.912;2023-01-23T16:50:15;22.10;80.00
32600;DHT22;19277;51.778;7.912;2023-01-23T16:52:54;22.10;80.50
32600;DHT22;19277;51.778;7.912;2023-01-23T16:55:26;22.10;80.00
32600;DHT22;19277;51.778;7.912;2023-01-23T16:57:54;22.20;80.60
32600;DHT22;19277;51.778;7.912;2023-01-23T17:00:21;22.20;80.10
32600;DHT22;19277;51.778;7.912;2023-01-23T17:02:50;22.20;80.00
32600;DHT22;19277;51.778;7.912;2023-01-23T17:05:18;22.20;79.90
32600;DHT22;19277;51.778;7.912;2023-01-23T17:07:44;22.20;79.80
32600;DHT22;19277;51.778;7.912;2023-01-23T17:10:17;22.20;79.80
32600;DHT22;19277;51.778;7.912;2023-01-23T17:12:47;22.20;79.70
32600;DHT22;19277;51.778;7.912;2023-01-23T17:15:23;22.30;79.70
32600;DHT22;19277;51.778;7.912;2023-01-23T17:17:51;22.30;79.80
32600;DHT22;19277;51.778;7.912;2023-01-23T17:20:17;22.30;79.70
32600;DHT22;19277;51.778;7.912;2023-01-23T17:22:43;22.30;79.70
32600;DHT22;19277;51.778;7.912;2023-01-23T17:25:20;22.30;79.60
32600;DHT22;19277;51.778;7.912;2023-01-23T17:27:46;22.30;79.60
32600;DHT22;19277;51.778;7.912;2023-01-23T17:30:19;22.30;79.70
32600;DHT22;19277;51.778;7.912;2023-01-23T17:32:47;22.30;79.70
32600;DHT22;19277;51.778;7.912;2023-01-23T17:35:23;22.20;79.60
32600;DHT22;19277;51.778;7.912;2023-01-23T17:37:50;22.30;79.60
32600;DHT22;19277;51.778;7.912;2023-01-23T17:40:16;22.20;79.60
32600;DHT22;19277;51.778;7.912;2023-01-23T17:42:41;22.30;79.60
32600;DHT22;19277;51.778;7.912;2023-01-23T17:45:17;22.30;79.50
32600;DHT22;19277;51.778;7.912;2023-01-23T17:47:46;22.20;79.60